createdAt,value
2023-03-16T00:00:01.962Z,100430.59
2023-03-16T00:01:26.872Z,100441.94
2023-03-16T00:02:49.432Z,100444.72
2023-03-16T00:04:10.956Z,100439.53
2023-03-16T00:05:33.435Z,100437.34
2023-03-16T00:06:54.773Z,100437.94
2023-03-16T00:08:20.327Z,100436.53
2023-03-16T00:09:42.138Z,100440.00
2023-03-16T00:11:04.850Z,100443.50
2023-03-16T00:12:27.533Z,100440.00
2023-03-16T00:13:55.161Z,100446.28
2023-03-16T00:15:16.413Z,100450.75
2023-03-16T00:16:38.403Z,100437.31
2023-03-16T00:17:59.604Z,100447.72
2023-03-16T00:19:23.118Z,100445.94
2023-03-16T00:20:43.984Z,100445.94
2023-03-16T00:22:06.492Z,100459.19
2023-03-16T00:23:27.665Z,100456.53
2023-03-16T00:24:50.037Z,100454.00
2023-03-16T00:26:13.292Z,100459.56
2023-03-16T00:27:35.812Z,100452.41
2023-03-16T00:28:58.019Z,100454.34
2023-03-16T00:30:19.087Z,100457.25
2023-03-16T00:31:44.306Z,100456.06
2023-03-16T00:33:06.978Z,100458.94
2023-03-16T00:34:30.158Z,100462.44
2023-03-16T00:36:02.441Z,100454.09
2023-03-16T00:37:24.600Z,100462.56
2023-03-16T00:38:50.686Z,100465.22
2023-03-16T00:40:14.185Z,100464.22
2023-03-16T00:41:38.257Z,100461.81
2023-03-16T00:43:02.135Z,100469.69
2023-03-16T00:44:24.541Z,100458.56
2023-03-16T00:45:46.692Z,100470.63
2023-03-16T00:47:10.360Z,100470.75
2023-03-16T00:48:35.013Z,100459.66
2023-03-16T00:50:01.185Z,100481.97
2023-03-16T00:51:23.105Z,100477.50
2023-03-16T00:52:46.450Z,100474.00
2023-03-16T00:54:07.685Z,100474.84
2023-03-16T00:55:30.373Z,100477.66
2023-03-16T00:56:51.664Z,100474.25
2023-03-16T00:58:16.909Z,100452.28
2023-03-16T00:59:38.502Z,100481.97
2023-03-16T01:01:02.415Z,100478.50
2023-03-16T01:02:24.812Z,100441.38
2023-03-16T01:03:47.034Z,100471.72
2023-03-16T01:05:09.448Z,100474.38
2023-03-16T01:06:30.429Z,100481.50
2023-03-16T01:07:52.748Z,100488.63
2023-03-16T01:09:15.065Z,100488.00
2023-03-16T01:10:37.193Z,100489.94
2023-03-16T01:11:58.500Z,100480.59
2023-03-16T01:13:22.670Z,100485.81
2023-03-16T01:14:46.188Z,100471.41
2023-03-16T01:16:09.607Z,100490.38
2023-03-16T01:17:35.026Z,100487.72
2023-03-16T01:18:57.793Z,100466.09
2023-03-16T01:20:20.692Z,100495.59
2023-03-16T01:21:42.715Z,100484.69
2023-03-16T01:23:05.894Z,100482.03
2023-03-16T01:24:28.037Z,100498.25
2023-03-16T01:25:53.289Z,100477.19
2023-03-16T01:27:16.147Z,100498.25
2023-03-16T01:28:40.153Z,100493.19
2023-03-16T01:30:02.440Z,100501.75
2023-03-16T01:31:25.269Z,100497.50
2023-03-16T01:32:46.616Z,100501.75
2023-03-16T01:34:09.127Z,100509.09
2023-03-16T01:35:32.036Z,100510.78
2023-03-16T01:36:55.200Z,100515.25
2023-03-16T01:38:25.230Z,100519.81
2023-03-16T01:39:46.473Z,100519.81
2023-03-16T01:41:10.107Z,100518.25
2023-03-16T01:42:31.574Z,100523.44
2023-03-16T01:43:58.474Z,100519.19
2023-03-16T01:46:09.204Z,100519.19
2023-03-16T01:47:38.314Z,100517.75
2023-03-16T01:49:07.136Z,100516.03
2023-03-16T01:50:30.279Z,100520.63
2023-03-16T01:51:56.532Z,100525.94
2023-03-16T01:53:21.264Z,100520.13
2023-03-16T01:54:48.924Z,100511.44
2023-03-16T01:56:11.703Z,100476.72
2023-03-16T01:57:42.758Z,100521.09
2023-03-16T01:59:12.029Z,100527.97
2023-03-16T02:00:34.694Z,100527.97
2023-03-16T02:02:17.004Z,100525.56
2023-03-16T02:03:38.565Z,100523.00
2023-03-16T02:05:16.961Z,100523.97
2023-03-16T02:06:38.889Z,100525.56
2023-03-16T02:08:13.098Z,100481.41
2023-03-16T02:09:39.850Z,100526.63
2023-03-16T02:11:01.557Z,100525.66
2023-03-16T02:12:36.973Z,100525.88
2023-03-16T02:14:05.345Z,100518.41
2023-03-16T02:15:29.210Z,100521.66
2023-03-16T02:16:51.932Z,100531.19
2023-03-16T02:18:15.679Z,100530.34
2023-03-16T02:19:50.044Z,100530.34
2023-03-16T02:21:18.667Z,100523.81
2023-03-16T02:22:44.853Z,100538.31
2023-03-16T02:24:06.594Z,100529.94
2023-03-16T02:25:38.421Z,100525.81
2023-03-16T02:27:04.837Z,100533.25
2023-03-16T02:28:37.310Z,100528.28
2023-03-16T02:30:07.930Z,100534.31
2023-03-16T02:31:37.137Z,100531.66
2023-03-16T02:33:01.676Z,100531.13
2023-03-16T02:34:24.745Z,100529.00
2023-03-16T02:35:47.372Z,100536.00
2023-03-16T02:37:10.070Z,100539.50
2023-03-16T02:38:32.751Z,100539.72
2023-03-16T02:39:54.832Z,100538.75
2023-03-16T02:41:20.133Z,100539.72
2023-03-16T02:42:54.886Z,100545.03
2023-03-16T02:44:24.404Z,100548.41
2023-03-16T02:45:52.943Z,100547.59
2023-03-16T02:47:26.110Z,100534.84
2023-03-16T02:48:52.655Z,100545.88
2023-03-16T02:50:16.049Z,100547.91
2023-03-16T02:51:37.036Z,100550.56
2023-03-16T02:52:59.120Z,100552.16
2023-03-16T02:54:20.658Z,100547.91
2023-03-16T02:55:42.481Z,100550.44
2023-03-16T02:57:05.082Z,100555.00
2023-03-16T02:58:32.112Z,100564.69
2023-03-16T02:59:57.152Z,100554.41
2023-03-16T03:01:19.957Z,100562.97
2023-03-16T03:02:42.089Z,100551.84
2023-03-16T03:04:04.879Z,100560.53
2023-03-16T03:05:26.370Z,100559.69
2023-03-16T03:06:48.722Z,100558.13
2023-03-16T03:08:09.289Z,100559.09
2023-03-16T03:09:32.414Z,100561.00
2023-03-16T03:10:54.514Z,100552.19
2023-03-16T03:12:15.647Z,100567.06
2023-03-16T03:13:39.316Z,100559.19
2023-03-16T03:15:08.373Z,100570.66
2023-03-16T03:16:40.814Z,100572.56
2023-03-16T03:18:04.259Z,100567.16
2023-03-16T03:19:27.653Z,100565.47
2023-03-16T03:20:48.379Z,100572.69
2023-03-16T03:22:12.315Z,100573.63
2023-03-16T03:23:35.092Z,100571.94
2023-03-16T03:24:57.833Z,100572.03
2023-03-16T03:26:20.215Z,100572.78
2023-03-16T03:27:43.197Z,100561.75
2023-03-16T03:29:08.558Z,100568.13
2023-03-16T03:30:30.048Z,100577.16
2023-03-16T03:31:53.823Z,100586.03
2023-03-16T03:33:14.639Z,100577.47
2023-03-16T03:34:36.845Z,100572.59
2023-03-16T03:36:00.339Z,100581.59
2023-03-16T03:37:27.310Z,100581.72
2023-03-16T03:38:49.845Z,100579.16
2023-03-16T03:40:16.221Z,100587.75
2023-03-16T03:41:41.231Z,100586.88
2023-03-16T03:43:04.624Z,100587.84
2023-03-16T03:44:28.988Z,100583.53
2023-03-16T03:45:51.468Z,100583.53
2023-03-16T03:47:14.073Z,100578.53
2023-03-16T03:48:36.165Z,100588.94
2023-03-16T03:49:57.534Z,100579.16
2023-03-16T03:51:19.785Z,100585.53
2023-03-16T03:53:04.496Z,100588.09
2023-03-16T03:54:32.034Z,100581.91
2023-03-16T03:55:58.533Z,100580.31
2023-03-16T03:57:21.860Z,100583.09
2023-03-16T03:58:45.313Z,100577.16
2023-03-16T04:00:13.673Z,100583.22
2023-03-16T04:01:34.817Z,100588.63
2023-03-16T04:02:58.880Z,100588.75
2023-03-16T04:04:28.386Z,100587.16
2023-03-16T04:05:50.062Z,100599.34
2023-03-16T04:07:16.249Z,100591.50
2023-03-16T04:08:39.948Z,100595.84
2023-03-16T04:10:06.231Z,100595.00
2023-03-16T04:11:32.986Z,100595.94
2023-03-16T04:12:55.428Z,100591.72
2023-03-16T04:14:16.832Z,100597.75
2023-03-16T04:15:40.130Z,100587.38
2023-03-16T04:17:14.800Z,100586.88
2023-03-16T04:18:39.599Z,100587.94
2023-03-16T04:20:02.611Z,100600.50
2023-03-16T04:21:27.293Z,100600.41
2023-03-16T04:22:49.131Z,100590.97
2023-03-16T04:24:14.932Z,100594.81
2023-03-16T04:25:38.924Z,100603.28
2023-03-16T04:27:03.246Z,100601.47
2023-03-16T04:28:27.308Z,100604.22
2023-03-16T04:29:48.545Z,100609.53
2023-03-16T04:31:14.716Z,100611.34
2023-03-16T04:32:46.076Z,100608.69
2023-03-16T04:34:19.025Z,100606.13
2023-03-16T04:35:42.190Z,100616.66
2023-03-16T04:37:10.943Z,100614.09
2023-03-16T04:38:40.561Z,100611.44
2023-03-16T04:40:13.792Z,100622.19
2023-03-16T04:41:51.703Z,100623.97
2023-03-16T04:43:23.098Z,100617.81
2023-03-16T04:44:57.346Z,100626.84
2023-03-16T04:46:20.316Z,100620.06
2023-03-16T04:47:42.142Z,100626.13
2023-03-16T04:49:03.995Z,100626.22
2023-03-16T04:50:28.076Z,100630.53
2023-03-16T04:51:49.785Z,100626.97
2023-03-16T04:53:14.762Z,100627.81
2023-03-16T04:54:37.974Z,100625.59
2023-03-16T04:56:00.664Z,100631.50
2023-03-16T04:57:21.786Z,100634.06
2023-03-16T04:58:48.065Z,100631.50
2023-03-16T05:00:12.058Z,100621.88
2023-03-16T05:01:41.362Z,100631.41
2023-03-16T05:03:04.673Z,100634.25
2023-03-16T05:04:27.508Z,100621.00
2023-03-16T05:05:51.095Z,100632.34
2023-03-16T05:07:13.864Z,100637.78
2023-03-16T05:08:40.822Z,100616.25
2023-03-16T05:10:02.799Z,100628.13
2023-03-16T05:11:25.405Z,100639.38
2023-03-16T05:12:51.834Z,100637.78
2023-03-16T05:14:13.760Z,100629.84
2023-03-16T05:15:49.848Z,100640.09
2023-03-16T05:17:16.862Z,100636.81
2023-03-16T05:18:40.788Z,100634.59
2023-03-16T05:20:02.438Z,100647.63
2023-03-16T05:21:37.775Z,100642.53
2023-03-16T05:23:02.254Z,100639.56
2023-03-16T05:24:28.131Z,100630.88
2023-03-16T05:25:51.232Z,100630.00
2023-03-16T05:27:16.524Z,100647.19
2023-03-16T05:28:38.788Z,100641.69
2023-03-16T05:30:08.388Z,100631.63
2023-03-16T05:31:33.525Z,100647.69
2023-03-16T05:32:58.430Z,100631.06
2023-03-16T05:34:21.818Z,100642.31
2023-03-16T05:35:44.355Z,100639.56
2023-03-16T05:37:09.832Z,100644.72
2023-03-16T05:38:33.190Z,100649.94
2023-03-16T05:39:57.733Z,100648.03
2023-03-16T05:41:21.601Z,100638.47
2023-03-16T05:43:04.617Z,100642.06
2023-03-16T05:44:30.198Z,100638.47
2023-03-16T05:46:04.748Z,100645.91
2023-03-16T05:47:27.412Z,100646.72
2023-03-16T05:48:52.580Z,100618.75
2023-03-16T05:50:18.179Z,100650.00
2023-03-16T05:51:40.798Z,100625.53
2023-03-16T05:53:04.687Z,100648.84
2023-03-16T05:54:25.960Z,100657.53
2023-03-16T05:55:58.113Z,100646.19
2023-03-16T05:57:19.308Z,100645.34
2023-03-16T05:58:44.171Z,100648.59
2023-03-16T06:00:12.439Z,100656.16
2023-03-16T06:01:35.236Z,100653.59
2023-03-16T06:02:57.556Z,100639.06
2023-03-16T06:04:24.957Z,100661.84
2023-03-16T06:05:45.983Z,100664.28
2023-03-16T06:07:09.761Z,100673.72
2023-03-16T06:08:33.520Z,100653.78
2023-03-16T06:10:02.965Z,100671.47
2023-03-16T06:11:25.924Z,100672.22
2023-03-16T06:12:48.226Z,100676.22
2023-03-16T06:14:09.440Z,100674.31
2023-03-16T06:15:32.298Z,100676.84
2023-03-16T06:16:57.555Z,100684.25
2023-03-16T06:18:19.656Z,100681.38
2023-03-16T06:19:41.935Z,100683.78
2023-03-16T06:21:04.143Z,100688.78
2023-03-16T06:22:30.338Z,100698.00
2023-03-16T06:23:54.555Z,100679.16
2023-03-16T06:25:17.795Z,100687.88
2023-03-16T06:26:41.325Z,100695.16
2023-03-16T06:28:07.306Z,100697.34
2023-03-16T06:29:29.836Z,100688.44
2023-03-16T06:30:55.372Z,100682.06
2023-03-16T06:32:19.413Z,100690.03
2023-03-16T06:33:41.678Z,100687.03
2023-03-16T06:35:04.217Z,100690.19
2023-03-16T06:36:26.254Z,100687.94
2023-03-16T06:37:51.770Z,100702.31
2023-03-16T06:39:47.800Z,100692.91
2023-03-16T06:41:13.024Z,100690.03
2023-03-16T06:42:35.111Z,100694.53
2023-03-16T06:43:58.268Z,100684.50
2023-03-16T06:45:22.332Z,100696.00
2023-03-16T06:46:45.305Z,100687.41
2023-03-16T06:48:10.003Z,100691.78
2023-03-16T06:49:32.578Z,100692.13
2023-03-16T06:50:56.372Z,100693.09
2023-03-16T06:52:24.074Z,100703.00
2023-03-16T06:53:46.412Z,100701.03
2023-03-16T06:55:10.452Z,100661.00
2023-03-16T06:56:34.517Z,100688.63
2023-03-16T06:57:57.049Z,100691.84
2023-03-16T06:59:18.818Z,100701.72
2023-03-16T07:00:42.014Z,100690.53
2023-03-16T07:02:07.136Z,100710.06
2023-03-16T07:03:29.262Z,100692.41
2023-03-16T07:04:56.856Z,100700.59
2023-03-16T07:06:19.770Z,100676.13
2023-03-16T07:07:42.794Z,100708.56
2023-03-16T07:09:05.728Z,100703.97
2023-03-16T07:10:30.533Z,100701.34
2023-03-16T07:11:53.218Z,100718.28
2023-03-16T07:13:15.639Z,100709.47
2023-03-16T07:14:38.667Z,100704.44
2023-03-16T07:16:01.225Z,100716.88
2023-03-16T07:17:28.235Z,100680.56
2023-03-16T07:18:50.873Z,100719.44
2023-03-16T07:20:22.834Z,100704.69
2023-03-16T07:21:45.813Z,100703.41
2023-03-16T07:23:12.619Z,100713.09
2023-03-16T07:24:36.126Z,100712.13
2023-03-16T07:26:00.055Z,100714.31
2023-03-16T07:27:23.414Z,100715.72
2023-03-16T07:28:46.913Z,100720.63
2023-03-16T07:30:12.279Z,100714.56
2023-03-16T07:31:36.011Z,100711.41
2023-03-16T07:33:03.505Z,100720.66
2023-03-16T07:34:26.313Z,100707.22
2023-03-16T07:35:52.239Z,100717.97
2023-03-16T07:37:17.210Z,100716.59
2023-03-16T07:38:42.684Z,100720.63
2023-03-16T07:40:09.389Z,100723.63
2023-03-16T07:41:33.954Z,100713.16
2023-03-16T07:43:26.490Z,100723.41
2023-03-16T07:44:52.164Z,100717.66
2023-03-16T07:46:14.816Z,100716.22
2023-03-16T07:47:37.510Z,100722.28
2023-03-16T07:49:09.829Z,100719.88
2023-03-16T07:50:36.626Z,100700.75
2023-03-16T07:51:59.196Z,100700.34
2023-03-16T07:53:29.737Z,100704.09
2023-03-16T07:55:21.243Z,100729.66
2023-03-16T07:56:49.565Z,100686.75
2023-03-16T07:58:43.590Z,100712.91
2023-03-16T08:00:07.439Z,100728.28
2023-03-16T08:01:34.698Z,100691.56
2023-03-16T08:02:57.770Z,100731.16
2023-03-16T08:04:20.120Z,100726.97
2023-03-16T08:05:43.062Z,100727.78
2023-03-16T08:07:15.359Z,100715.81
2023-03-16T08:08:47.967Z,100727.75
2023-03-16T08:10:18.264Z,100728.19
2023-03-16T08:11:48.349Z,100717.69
2023-03-16T08:13:12.442Z,100709.84
2023-03-16T08:14:37.840Z,100729.97
2023-03-16T08:16:10.539Z,100722.66
2023-03-16T08:17:35.101Z,100728.06
2023-03-16T08:18:59.849Z,100731.94
2023-03-16T08:20:22.188Z,100716.59
2023-03-16T08:22:00.411Z,100735.31
2023-03-16T08:23:32.527Z,100727.78
2023-03-16T08:24:58.308Z,100722.69
2023-03-16T08:26:22.044Z,100728.06
2023-03-16T08:27:51.378Z,100725.97
2023-03-16T08:29:13.654Z,100717.22
2023-03-16T08:30:39.286Z,100731.91
2023-03-16T08:32:14.732Z,100738.88
2023-03-16T08:33:39.971Z,100728.41
2023-03-16T08:35:04.057Z,100734.25
2023-03-16T08:36:27.925Z,100734.19
2023-03-16T08:37:51.827Z,100743.47
2023-03-16T08:39:14.085Z,100742.88
2023-03-16T08:40:47.082Z,100728.03
2023-03-16T08:42:09.503Z,100743.34
2023-03-16T08:43:40.326Z,100733.06
2023-03-16T08:45:12.334Z,100740.34
2023-03-16T08:46:39.551Z,100740.91
2023-03-16T08:48:02.913Z,100748.09
2023-03-16T08:49:25.834Z,100722.78
2023-03-16T08:50:58.470Z,100741.31
2023-03-16T08:52:19.799Z,100738.53
2023-03-16T08:53:42.054Z,100740.31
2023-03-16T08:55:05.822Z,100755.03
2023-03-16T08:56:29.132Z,100725.22
2023-03-16T08:57:51.455Z,100750.97
2023-03-16T08:59:27.378Z,100742.38
2023-03-16T09:00:52.157Z,100752.16
2023-03-16T09:02:15.462Z,100754.47
2023-03-16T09:03:37.938Z,100752.72
2023-03-16T09:04:59.826Z,100757.97
2023-03-16T09:06:22.607Z,100760.06
2023-03-16T09:07:44.689Z,100760.00
2023-03-16T09:09:06.863Z,100769.06
2023-03-16T09:10:30.329Z,100768.59
2023-03-16T09:11:52.896Z,100767.38
2023-03-16T09:13:16.473Z,100768.72
2023-03-16T09:14:40.434Z,100772.72
2023-03-16T09:16:03.310Z,100760.63
2023-03-16T09:17:28.716Z,100767.50
2023-03-16T09:18:51.700Z,100766.13
2023-03-16T09:20:22.295Z,100773.47
2023-03-16T09:21:48.254Z,100773.84
2023-03-16T09:23:10.824Z,100773.06
2023-03-16T09:24:32.870Z,100774.59
2023-03-16T09:25:59.481Z,100774.78
2023-03-16T09:27:22.723Z,100772.31
2023-03-16T09:28:44.790Z,100766.06
2023-03-16T09:30:10.578Z,100763.47
2023-03-16T09:31:33.212Z,100756.53
2023-03-16T09:35:34.345Z,100730.38
2023-03-16T09:37:00.157Z,100741.78
2023-03-16T09:38:23.473Z,100759.31
2023-03-16T09:39:48.583Z,100760.97
2023-03-16T09:41:17.383Z,100771.94
2023-03-16T09:42:55.242Z,100779.31
2023-03-16T09:44:29.770Z,100766.41
2023-03-16T09:46:04.701Z,100770.91
2023-03-16T09:47:30.688Z,100784.03
2023-03-16T09:48:53.622Z,100774.22
2023-03-16T09:50:24.324Z,100772.50
2023-03-16T09:51:53.292Z,100771.69
2023-03-16T09:53:25.077Z,100757.25
2023-03-16T09:54:50.875Z,100772.84
2023-03-16T09:56:18.425Z,100757.44
2023-03-16T09:57:45.056Z,100780.66
2023-03-16T09:59:15.894Z,100779.91
2023-03-16T10:00:43.694Z,100772.69
2023-03-16T10:02:31.730Z,100768.19
2023-03-16T10:04:03.833Z,100775.50
2023-03-16T10:05:26.341Z,100777.00
2023-03-16T10:07:02.108Z,100788.81
2023-03-16T10:08:29.861Z,100785.22
2023-03-16T10:09:59.093Z,100789.41
2023-03-16T10:11:38.505Z,100770.38
2023-03-16T10:13:19.095Z,100788.03
2023-03-16T10:14:50.340Z,100766.66
2023-03-16T10:16:20.950Z,100781.19
2023-03-16T10:17:50.212Z,100793.72
2023-03-16T10:19:19.891Z,100799.00
2023-03-16T10:20:43.815Z,100763.19
2023-03-16T10:22:20.001Z,100786.97
2023-03-16T10:23:42.461Z,100794.56
2023-03-16T10:25:13.055Z,100784.31
2023-03-16T10:26:41.026Z,100755.13
2023-03-16T10:28:06.450Z,100795.06
2023-03-16T10:29:36.370Z,100799.75
2023-03-16T10:31:01.855Z,100789.28
2023-03-16T10:32:29.390Z,100775.84
2023-03-16T10:33:59.648Z,100766.00
2023-03-16T10:35:36.222Z,100775.41
2023-03-16T10:36:58.552Z,100744.56
2023-03-16T10:38:33.349Z,100773.50
2023-03-16T10:39:56.648Z,100776.47
2023-03-16T10:41:25.714Z,100760.16
2023-03-16T10:42:49.019Z,100739.50
2023-03-16T10:44:13.242Z,100769.84
2023-03-16T10:45:38.225Z,100774.63
2023-03-16T10:47:04.532Z,100775.63
2023-03-16T10:48:28.500Z,100771.56
2023-03-16T10:49:53.591Z,100776.09
2023-03-16T10:51:18.868Z,100788.56
2023-03-16T10:52:44.820Z,100759.19
2023-03-16T10:54:14.424Z,100778.13
2023-03-16T10:55:45.836Z,100772.41
2023-03-16T10:57:22.777Z,100767.50
2023-03-16T10:58:46.338Z,100775.34
2023-03-16T11:00:21.084Z,100768.66
2023-03-16T11:01:49.045Z,100776.09
2023-03-16T11:03:28.042Z,100778.88
2023-03-16T11:04:53.318Z,100777.09
2023-03-16T11:06:22.739Z,100770.16
2023-03-16T11:07:52.563Z,100774.31
2023-03-16T11:09:21.051Z,100779.72
2023-03-16T11:10:55.293Z,100777.25
2023-03-16T11:12:25.869Z,100782.84
2023-03-16T11:13:49.173Z,100780.81
2023-03-16T11:15:25.339Z,100783.63
2023-03-16T11:16:52.151Z,100777.22
2023-03-16T11:18:27.333Z,100778.19
2023-03-16T11:19:55.082Z,100781.19
2023-03-16T11:21:22.385Z,100770.81
2023-03-16T11:22:47.339Z,100767.84
2023-03-16T11:24:20.121Z,100765.06
2023-03-16T11:25:47.913Z,100769.63
2023-03-16T11:27:20.352Z,100763.75
2023-03-16T11:28:44.532Z,100775.03
2023-03-16T11:30:15.294Z,100771.31
2023-03-16T11:31:46.236Z,100765.91
2023-03-16T11:33:11.429Z,100771.22
2023-03-16T11:34:35.486Z,100766.47
2023-03-16T11:36:10.245Z,100767.00
2023-03-16T11:37:49.827Z,100767.00
2023-03-16T11:39:23.611Z,100763.91
2023-03-16T11:40:59.552Z,100755.19
2023-03-16T11:42:31.478Z,100761.03
2023-03-16T11:43:53.764Z,100763.69
2023-03-16T11:45:24.249Z,100759.09
2023-03-16T11:46:53.500Z,100757.69
2023-03-16T11:48:29.321Z,100757.09
2023-03-16T11:50:02.753Z,100760.03
2023-03-16T11:51:38.068Z,100760.09
2023-03-16T11:53:08.907Z,100751.38
2023-03-16T11:54:48.973Z,100756.81
2023-03-16T11:56:21.972Z,100743.16
2023-03-16T11:57:55.237Z,100745.03
2023-03-16T12:00:01.167Z,100743.63
2023-03-16T12:01:31.546Z,100743.63
2023-03-16T12:03:12.732Z,100728.66
2023-03-16T12:04:49.475Z,100740.44
2023-03-16T12:06:25.107Z,100742.34
2023-03-16T12:07:59.511Z,100735.97
2023-03-16T12:09:52.524Z,100743.75
2023-03-16T12:11:24.208Z,100733.34
2023-03-16T12:13:02.000Z,100742.44
2023-03-16T12:14:28.532Z,100744.63
2023-03-16T12:15:53.713Z,100745.31
2023-03-16T12:17:21.293Z,100738.09
2023-03-16T12:18:48.996Z,100748.69
2023-03-16T12:20:18.664Z,100747.84
2023-03-16T12:21:44.822Z,100736.34
2023-03-16T12:23:15.937Z,100743.59
2023-03-16T12:24:47.214Z,100747.31
2023-03-16T12:26:13.334Z,100732.66
2023-03-16T12:27:41.383Z,100731.97
2023-03-16T12:29:09.970Z,100712.44
2023-03-16T12:30:45.901Z,100730.84
2023-03-16T12:32:13.626Z,100726.28
2023-03-16T12:33:47.977Z,100727.97
2023-03-16T12:35:25.624Z,100728.63
2023-03-16T12:37:07.339Z,100740.56
2023-03-16T12:38:47.638Z,100733.84
2023-03-16T12:40:24.751Z,100737.22
2023-03-16T12:42:01.462Z,100747.47
2023-03-16T12:43:39.559Z,100734.00
2023-03-16T12:45:04.839Z,100735.50
2023-03-16T12:46:33.841Z,100737.72
2023-03-16T12:48:04.353Z,100730.63
2023-03-16T12:49:33.847Z,100727.41
2023-03-16T12:50:58.029Z,100740.50
2023-03-16T12:52:23.346Z,100736.28
2023-03-16T12:53:54.854Z,100727.53
2023-03-16T12:55:19.564Z,100732.72
2023-03-16T12:56:47.681Z,100726.63
2023-03-16T12:58:09.858Z,100722.91
2023-03-16T12:59:41.706Z,100731.78
2023-03-16T13:01:06.118Z,100732.41
2023-03-16T13:02:32.807Z,100730.38
2023-03-16T13:04:03.030Z,100735.03
2023-03-16T13:05:32.988Z,100736.03
2023-03-16T13:07:05.213Z,100737.50
2023-03-16T13:08:27.877Z,100731.78
2023-03-16T13:09:55.278Z,100731.41
2023-03-16T13:11:17.833Z,100738.09
2023-03-16T13:12:42.010Z,100738.09
2023-03-16T13:14:12.182Z,100741.09
2023-03-16T13:15:37.171Z,100740.28
2023-03-16T13:17:30.993Z,100730.13
2023-03-16T13:19:00.371Z,100723.31
2023-03-16T13:20:31.600Z,100747.41
2023-03-16T13:22:08.478Z,100745.34
2023-03-16T13:23:50.571Z,100685.50
2023-03-16T13:25:22.724Z,100739.94
2023-03-16T13:26:49.075Z,100722.75
2023-03-16T13:28:20.508Z,100708.72
2023-03-16T13:29:53.767Z,100723.72
2023-03-16T13:31:39.326Z,100732.69
2023-03-16T13:33:09.129Z,100731.06
2023-03-16T13:34:33.981Z,100735.50
2023-03-16T13:36:05.360Z,100721.72
2023-03-16T13:37:37.509Z,100712.50
2023-03-16T13:39:09.817Z,100715.91
2023-03-16T13:40:33.680Z,100729.09
2023-03-16T13:42:20.453Z,100735.19
2023-03-16T13:43:45.199Z,100722.66
2023-03-16T13:45:22.692Z,100698.25
2023-03-16T13:47:33.092Z,100710.91
2023-03-16T13:48:56.982Z,100732.34
2023-03-16T13:50:31.543Z,100705.38
2023-03-16T13:52:29.329Z,100735.38
2023-03-16T13:54:26.026Z,100734.50
2023-03-16T13:55:50.398Z,100720.53
2023-03-16T13:57:24.081Z,100727.25
2023-03-16T13:58:54.094Z,100685.00
2023-03-16T14:00:22.076Z,100723.53
2023-03-16T14:01:49.937Z,100697.56
2023-03-16T14:03:17.883Z,100720.31
2023-03-16T14:04:43.012Z,100737.44
2023-03-16T14:06:07.263Z,100723.97
2023-03-16T14:07:29.781Z,100732.84
2023-03-16T14:08:55.349Z,100716.16
2023-03-16T14:10:18.097Z,100716.16
2023-03-16T14:11:42.977Z,100710.25
2023-03-16T14:13:11.080Z,100727.09
2023-03-16T14:14:39.400Z,100723.72
2023-03-16T14:16:13.586Z,100710.38
2023-03-16T14:17:36.471Z,100712.94
2023-03-16T14:19:04.399Z,100705.66
2023-03-16T14:20:27.318Z,100713.88
2023-03-16T14:21:50.257Z,100697.13
2023-03-16T14:23:24.741Z,100683.53
2023-03-16T14:24:53.079Z,100711.25
2023-03-16T14:26:18.991Z,100696.09
2023-03-16T14:27:47.691Z,100708.91
2023-03-16T14:29:19.736Z,100710.44
2023-03-16T14:30:52.107Z,100701.94
2023-03-16T14:32:28.594Z,100706.13
2023-03-16T14:34:02.597Z,100693.53
2023-03-16T14:35:28.573Z,100703.28
2023-03-16T14:36:50.399Z,100702.44
2023-03-16T14:38:23.639Z,100697.38
2023-03-16T14:39:47.212Z,100681.34
2023-03-16T14:41:22.971Z,100688.09
2023-03-16T14:42:46.182Z,100683.19
2023-03-16T14:44:21.304Z,100686.22
2023-03-16T14:45:43.793Z,100678.25
2023-03-16T14:47:07.305Z,100679.09
2023-03-16T14:48:30.454Z,100683.25
2023-03-16T14:49:53.423Z,100683.03
2023-03-16T14:51:16.548Z,100692.94
2023-03-16T14:52:37.961Z,100695.91
2023-03-16T14:54:03.931Z,100697.06
2023-03-16T14:55:26.100Z,100690.03
2023-03-16T14:56:50.894Z,100702.59
2023-03-16T14:58:14.346Z,100684.50
2023-03-16T14:59:36.670Z,100690.94
2023-03-16T15:00:59.664Z,100693.44
2023-03-16T15:02:28.074Z,100692.28
2023-03-16T15:03:50.567Z,100696.69
2023-03-16T15:05:23.720Z,100694.84
2023-03-16T15:06:47.405Z,100687.25
2023-03-16T15:08:18.359Z,100693.44
2023-03-16T15:09:43.612Z,100689.25
2023-03-16T15:11:08.306Z,100648.09
2023-03-16T15:12:31.087Z,100680.13
2023-03-16T15:14:04.297Z,100692.03
2023-03-16T15:15:28.706Z,100692.66
2023-03-16T15:17:03.087Z,100689.41
2023-03-16T15:18:25.479Z,100682.00
2023-03-16T15:19:47.582Z,100675.72
2023-03-16T15:21:13.585Z,100688.53
2023-03-16T15:22:39.512Z,100683.63
2023-03-16T15:24:02.022Z,100667.22
2023-03-16T15:25:29.865Z,100687.06
2023-03-16T15:27:00.419Z,100644.84
2023-03-16T15:28:24.530Z,100650.59
2023-03-16T15:29:48.566Z,100686.31
2023-03-16T15:31:14.749Z,100682.69
2023-03-16T15:32:36.573Z,100697.66
2023-03-16T15:33:59.639Z,100691.44
2023-03-16T15:35:21.542Z,100686.00
2023-03-16T15:36:44.036Z,100695.03
2023-03-16T15:38:09.597Z,100696.88
2023-03-16T15:39:32.266Z,100681.69
2023-03-16T15:40:55.320Z,100700.00
2023-03-16T15:42:19.184Z,100694.81
2023-03-16T15:43:41.625Z,100686.00
2023-03-16T15:45:12.358Z,100692.59
2023-03-16T15:46:35.144Z,100692.91
2023-03-16T15:47:57.582Z,100688.13
2023-03-16T15:49:19.630Z,100695.16
2023-03-16T15:50:45.948Z,100684.34
2023-03-16T15:52:19.373Z,100694.78
2023-03-16T15:53:45.199Z,100698.59
2023-03-16T15:55:08.617Z,100701.59
2023-03-16T15:56:47.321Z,100686.56
2023-03-16T15:58:21.094Z,100692.06
2023-03-16T15:59:43.435Z,100698.00
2023-03-16T16:01:09.196Z,100695.06
2023-03-16T16:02:33.356Z,100699.41
2023-03-16T16:03:56.762Z,100703.41
2023-03-16T16:05:19.224Z,100689.88
2023-03-16T16:06:41.436Z,100690.03
2023-03-16T16:08:03.762Z,100699.63
2023-03-16T16:09:26.016Z,100698.09
2023-03-16T16:10:50.388Z,100703.56
2023-03-16T16:12:15.258Z,100701.19
2023-03-16T16:13:44.731Z,100692.75
2023-03-16T16:15:20.222Z,100696.28
2023-03-16T16:16:46.229Z,100684.25
2023-03-16T16:18:26.733Z,100703.22
2023-03-16T16:19:49.387Z,100711.25
2023-03-16T16:21:23.101Z,100665.13
2023-03-16T16:22:47.444Z,100705.78
2023-03-16T16:24:11.005Z,100698.19
2023-03-16T16:25:38.192Z,100710.59
2023-03-16T16:27:00.861Z,100675.25
2023-03-16T16:28:24.938Z,100702.59
2023-03-16T16:29:46.894Z,100685.84
2023-03-16T16:31:15.019Z,100688.50
2023-03-16T16:32:40.041Z,100700.47
2023-03-16T16:34:02.989Z,100695.00